createdAt,value
2022-09-03T00:00:21.677Z,37.70
2022-09-03T00:02:58.319Z,37.80
2022-09-03T00:05:34.501Z,36.60
2022-09-03T00:08:08.478Z,35.90
2022-09-03T00:10:44.923Z,36.60
2022-09-03T00:13:17.601Z,37.50
2022-09-03T00:18:20.045Z,29.40
2022-09-03T00:20:53.670Z,29.80
2022-09-03T00:23:24.209Z,36.40
2022-09-03T00:25:57.283Z,29.50
2022-09-03T00:28:30.214Z,29.90
2022-09-03T00:31:07.323Z,29.70
2022-09-03T00:33:40.661Z,44.50
2022-09-03T00:36:17.304Z,30.50
2022-09-03T00:38:45.815Z,30.40
2022-09-03T00:41:25.146Z,38.50
2022-09-03T00:44:14.690Z,30.40
2022-09-03T00:46:48.163Z,30.40
2022-09-03T00:49:40.549Z,30.40
2022-09-03T00:52:15.506Z,30.40
2022-09-03T00:54:52.683Z,39.00
2022-09-03T00:57:37.203Z,40.50
2022-09-03T01:00:09.014Z,30.50
2022-09-03T01:02:52.646Z,40.30
2022-09-03T01:05:40.333Z,30.50
2022-09-03T01:08:26.042Z,30.50
2022-09-03T01:10:58.891Z,39.30
2022-09-03T01:13:35.104Z,39.40
2022-09-03T01:16:14.406Z,39.90
2022-09-03T01:18:48.778Z,38.80
2022-09-03T01:21:46.789Z,30.60
2022-09-03T01:24:53.237Z,30.50
2022-09-03T01:27:35.645Z,38.50
2022-09-03T01:30:09.247Z,30.50
2022-09-03T01:32:48.374Z,39.30
2022-09-03T01:35:25.253Z,37.40
2022-09-03T01:38:08.680Z,30.60
2022-09-03T01:40:43.580Z,39.30
2022-09-03T01:43:25.221Z,38.00
2022-09-03T01:46:01.579Z,38.40
2022-09-03T01:48:39.392Z,38.40
2022-09-03T01:51:18.002Z,38.60
2022-09-03T01:54:04.643Z,37.20
2022-09-03T01:56:47.188Z,38.60
2022-09-03T01:59:22.321Z,37.70
2022-09-03T02:01:58.896Z,30.90
2022-09-03T02:04:28.704Z,38.50
2022-09-03T02:06:58.545Z,30.80
2022-09-03T02:09:27.566Z,30.80
2022-09-03T02:12:09.269Z,30.90
2022-09-03T02:14:37.633Z,37.50
2022-09-03T02:17:08.493Z,38.10
2022-09-03T02:19:38.135Z,38.60
2022-09-03T02:22:06.444Z,31.00
2022-09-03T02:24:34.986Z,37.60
2022-09-03T02:27:03.095Z,41.10
2022-09-03T02:32:00.136Z,37.60
2022-09-03T02:34:29.648Z,39.80
2022-09-03T02:36:57.733Z,39.80
2022-09-03T02:39:27.717Z,38.20
2022-09-03T02:41:58.189Z,38.30
2022-09-03T02:44:31.686Z,38.70
2022-09-03T02:47:02.693Z,39.50
2022-09-03T02:49:33.194Z,38.30
2022-09-03T02:52:05.852Z,31.30
2022-09-03T02:54:36.477Z,31.30
2022-09-03T02:57:04.921Z,42.80
2022-09-03T02:59:33.253Z,39.20
2022-09-03T03:02:01.504Z,39.40
2022-09-03T03:04:31.876Z,38.30
2022-09-03T03:07:00.394Z,39.80
2022-09-03T03:09:29.031Z,39.20
2022-09-03T03:11:57.169Z,42.50
2022-09-03T03:14:25.501Z,40.30
2022-09-03T03:16:53.730Z,40.20
2022-09-03T03:19:21.897Z,39.80
2022-09-03T03:21:51.421Z,40.30
2022-09-03T03:24:19.882Z,39.40
2022-09-03T03:26:47.983Z,39.70
2022-09-03T03:29:18.569Z,39.20
2022-09-03T03:31:46.705Z,39.20
2022-09-03T03:34:14.830Z,39.50
2022-09-03T03:36:42.931Z,39.50
2022-09-03T03:39:12.450Z,39.30
2022-09-03T03:41:40.579Z,40.40
2022-09-03T03:44:09.922Z,39.50
2022-09-03T03:46:39.595Z,40.00
2022-09-03T03:49:09.314Z,39.70
2022-09-03T03:51:37.995Z,32.00
2022-09-03T03:54:06.743Z,40.00
2022-09-03T03:56:36.583Z,40.40
2022-09-03T03:59:05.222Z,40.00
2022-09-03T04:01:33.783Z,39.80
2022-09-03T04:04:01.993Z,42.10
2022-09-03T04:06:30.153Z,42.40
2022-09-03T04:08:58.509Z,45.00
2022-09-03T04:11:27.255Z,42.80
2022-09-03T04:13:56.791Z,40.60
2022-09-03T04:16:26.666Z,31.80
2022-09-03T04:18:56.094Z,41.30
2022-09-03T04:21:25.428Z,41.60
2022-09-03T04:23:57.414Z,32.50
2022-09-03T04:26:27.589Z,43.60
2022-09-03T04:28:57.132Z,45.00
2022-09-03T04:31:26.210Z,43.50
2022-09-03T04:33:54.998Z,33.40
2022-09-03T04:36:25.658Z,43.30
2022-09-03T04:38:55.868Z,48.00
2022-09-03T04:41:26.000Z,46.60
2022-09-03T04:43:54.780Z,46.20
2022-09-03T04:46:26.488Z,44.50
2022-09-03T04:48:56.319Z,50.30
2022-09-03T04:51:25.434Z,34.10
2022-09-03T04:53:57.358Z,34.70
2022-09-03T04:56:27.490Z,48.90
2022-09-03T04:58:57.627Z,48.40
2022-09-03T05:01:28.734Z,39.60
2022-09-03T05:03:58.094Z,33.50
2022-09-03T05:06:26.859Z,33.60
2022-09-03T05:08:56.160Z,50.30
2022-09-03T05:11:25.102Z,47.60
2022-09-03T05:13:55.486Z,46.60
2022-09-03T05:16:26.278Z,50.90
2022-09-03T05:18:55.162Z,54.20
2022-09-03T05:21:24.560Z,48.30
2022-09-03T05:23:53.858Z,50.10
2022-09-03T05:26:25.289Z,49.10
2022-09-03T05:28:56.125Z,50.20
2022-09-03T05:31:26.802Z,49.90
2022-09-03T05:33:58.559Z,34.30
2022-09-03T05:36:28.977Z,49.20
2022-09-03T05:38:58.630Z,48.10
2022-09-03T05:41:27.349Z,34.80
2022-09-03T05:43:59.150Z,47.80
2022-09-03T05:46:31.826Z,52.60
2022-09-03T05:49:01.361Z,52.70
2022-09-03T05:51:30.172Z,50.40
2022-09-03T05:53:59.659Z,56.50
2022-09-03T05:56:29.404Z,52.20
2022-09-03T05:59:00.552Z,52.40
2022-09-03T06:01:31.507Z,53.30
2022-09-03T06:04:01.487Z,53.30
2022-09-03T06:06:31.676Z,57.50
2022-09-03T06:09:02.509Z,53.80
2022-09-03T06:11:31.891Z,54.80
2022-09-03T06:14:02.114Z,53.70
2022-09-03T06:16:32.561Z,56.70
2022-09-03T06:19:01.112Z,60.00
2022-09-03T06:21:29.769Z,54.40
2022-09-03T06:23:59.665Z,55.50
2022-09-03T06:31:28.466Z,56.70
2022-09-03T06:34:03.379Z,56.30
2022-09-03T06:39:01.512Z,61.60
2022-09-03T06:41:33.123Z,61.00
2022-09-03T06:44:03.549Z,61.00
2022-09-03T06:46:33.618Z,57.70
2022-09-03T06:49:03.488Z,59.40
2022-09-03T06:51:33.468Z,57.50
2022-09-03T06:54:02.911Z,67.10
2022-09-03T06:56:37.320Z,57.40
2022-09-03T06:59:08.781Z,58.20
2022-09-03T07:01:40.655Z,38.70
2022-09-03T07:04:16.293Z,58.80
2022-09-03T07:06:45.336Z,36.50
2022-09-03T07:09:15.604Z,53.50
2022-09-03T07:11:48.627Z,49.80
2022-09-03T07:14:18.141Z,36.10
2022-09-03T07:16:47.102Z,48.70
2022-09-03T07:19:18.766Z,46.70
2022-09-03T07:21:50.163Z,34.80
2022-09-03T07:24:19.896Z,35.10
2022-09-03T07:26:49.149Z,35.20
2022-09-03T07:29:20.699Z,46.40
2022-09-03T07:31:51.721Z,47.70
2022-09-03T07:34:25.331Z,45.40
2022-09-03T07:36:54.108Z,48.50
2022-09-03T07:41:50.790Z,48.50
2022-09-03T07:44:20.676Z,33.60
2022-09-03T07:46:51.065Z,33.70
2022-09-03T07:49:21.980Z,33.20
2022-09-03T07:51:53.997Z,33.20
2022-09-03T07:54:24.013Z,43.70
2022-09-03T07:56:52.357Z,42.90
2022-09-03T07:59:21.408Z,42.60
2022-09-03T08:01:50.970Z,41.90
2022-09-03T08:04:18.925Z,31.50
2022-09-03T08:06:48.399Z,30.30
2022-09-03T08:09:16.709Z,41.60
2022-09-03T08:11:45.152Z,40.70
2022-09-03T08:14:14.922Z,40.70
2022-09-03T08:16:45.926Z,38.80
2022-09-03T08:19:14.882Z,37.60
2022-09-03T08:21:43.093Z,38.10
2022-09-03T08:24:13.292Z,38.70
2022-09-03T08:26:47.623Z,38.00
2022-09-03T08:29:19.536Z,37.70
2022-09-03T08:31:47.743Z,30.10
2022-09-03T08:34:17.777Z,37.70
2022-09-03T08:36:47.583Z,37.30
2022-09-03T08:39:17.625Z,29.70
2022-09-03T08:42:02.997Z,29.10
2022-09-03T08:44:43.192Z,29.50
2022-09-03T08:47:14.808Z,29.10
2022-09-03T08:49:49.368Z,29.20
2022-09-03T08:52:30.921Z,28.80
2022-09-03T08:55:05.598Z,28.70
2022-09-03T08:57:42.752Z,28.60
2022-09-03T09:00:11.925Z,28.70
2022-09-03T09:02:59.398Z,28.30
2022-09-03T09:05:43.552Z,28.30
2022-09-03T09:08:21.924Z,28.30
2022-09-03T09:11:00.786Z,27.90
2022-09-03T09:13:35.564Z,27.50
2022-09-03T09:16:11.029Z,27.60
2022-09-03T09:18:55.009Z,27.80
2022-09-03T09:21:29.632Z,28.10
2022-09-03T09:24:03.760Z,28.30
2022-09-03T09:26:34.476Z,28.40
2022-09-03T09:29:10.142Z,28.60
2022-09-03T09:31:39.830Z,28.80
2022-09-03T09:34:09.578Z,35.30
2022-09-03T09:36:43.957Z,35.70
2022-09-03T09:39:15.974Z,29.20
2022-09-03T09:41:57.966Z,36.40
2022-09-03T09:44:28.105Z,38.60
2022-09-03T09:47:06.834Z,38.50
2022-09-03T09:49:38.077Z,40.20
2022-09-03T09:52:12.074Z,40.30
2022-09-03T09:54:42.199Z,29.20
2022-09-03T09:57:18.987Z,28.90
2022-09-03T09:59:48.072Z,38.80
2022-09-03T10:02:24.063Z,37.00
2022-09-03T10:04:52.267Z,38.30
2022-09-03T10:07:32.106Z,38.40
2022-09-03T10:10:05.376Z,39.30
2022-09-03T10:12:42.087Z,27.60
2022-09-03T10:15:21.400Z,39.50
2022-09-03T10:17:57.496Z,35.90
2022-09-03T10:20:34.189Z,27.80
2022-09-03T10:23:08.670Z,27.70
2022-09-03T10:25:41.781Z,27.60
2022-09-03T10:28:13.450Z,27.50
2022-09-03T10:31:06.630Z,27.50
2022-09-03T10:33:40.556Z,27.10
2022-09-03T10:36:16.785Z,27.20
2022-09-03T10:38:48.617Z,26.90
2022-09-03T10:41:26.041Z,26.30
2022-09-03T10:44:25.946Z,26.30
2022-09-03T10:47:03.073Z,26.30
2022-09-03T10:49:43.762Z,26.60
2022-09-03T10:52:17.814Z,26.00
2022-09-03T10:54:56.299Z,26.00
2022-09-03T10:57:36.011Z,26.00
2022-09-03T11:00:09.979Z,25.50
2022-09-03T11:03:12.660Z,25.90
2022-09-03T11:05:45.359Z,25.80
2022-09-03T11:08:18.630Z,25.20
2022-09-03T11:10:50.330Z,25.20
2022-09-03T11:13:25.765Z,24.80
2022-09-03T11:15:59.976Z,25.20
2022-09-03T11:18:34.993Z,25.60
2022-09-03T11:21:07.628Z,24.70
2022-09-03T11:23:40.653Z,24.90
2022-09-03T11:26:12.862Z,24.60
2022-09-03T11:28:45.358Z,24.50
2022-09-03T11:31:25.502Z,24.60
2022-09-03T11:33:56.248Z,24.70
2022-09-03T11:36:30.561Z,24.40
2022-09-03T11:38:58.625Z,24.20
2022-09-03T11:41:28.226Z,24.10
2022-09-03T11:43:59.126Z,24.00
2022-09-03T11:46:32.069Z,24.00
2022-09-03T11:49:11.715Z,24.30
2022-09-03T11:51:41.988Z,24.20
2022-09-03T11:54:26.031Z,24.20
2022-09-03T11:57:06.868Z,24.70
2022-09-03T11:59:34.743Z,24.20
2022-09-03T12:02:06.317Z,23.30
2022-09-03T12:04:36.980Z,23.30
2022-09-03T12:07:20.250Z,23.60
2022-09-03T12:10:02.549Z,24.10
2022-09-03T12:12:41.575Z,24.50
2022-09-03T12:15:19.178Z,24.10
2022-09-03T12:18:08.667Z,23.80
2022-09-03T12:20:36.741Z,23.30
2022-09-03T12:23:04.980Z,23.50
2022-09-03T12:25:33.824Z,23.80
2022-09-03T12:28:04.962Z,24.30
2022-09-03T12:30:33.235Z,23.90
2022-09-03T12:33:12.006Z,23.60
2022-09-03T12:38:29.672Z,24.10
2022-09-03T12:43:53.022Z,24.10
2022-09-03T12:46:33.893Z,24.40
2022-09-03T12:52:05.792Z,24.80
2022-09-03T12:54:36.209Z,25.10
2022-09-03T12:57:05.820Z,25.10
2022-09-03T12:59:37.239Z,25.30
2022-09-03T13:02:07.770Z,25.30
2022-09-03T13:04:38.643Z,25.20
2022-09-03T13:07:09.156Z,25.10
2022-09-03T13:09:41.116Z,25.20
2022-09-03T13:12:21.355Z,25.20
2022-09-03T13:14:52.353Z,25.20
2022-09-03T13:17:47.628Z,25.30
2022-09-03T13:20:34.276Z,25.30
2022-09-03T13:23:34.117Z,25.30
2022-09-03T13:26:12.651Z,25.40
2022-09-03T13:28:58.300Z,25.50
2022-09-03T13:31:33.551Z,25.50
2022-09-03T13:34:06.820Z,25.70
2022-09-03T13:36:43.527Z,25.90
2022-09-03T13:39:23.137Z,25.70
2022-09-03T13:41:56.608Z,25.80
2022-09-03T13:44:37.965Z,25.80
2022-09-03T13:47:14.553Z,25.70
2022-09-03T13:50:06.040Z,25.50
2022-09-03T13:52:43.029Z,25.60
2022-09-03T13:55:15.527Z,25.90
2022-09-03T13:57:52.129Z,25.20
2022-09-03T14:00:32.493Z,25.20
2022-09-03T14:03:09.460Z,25.40
2022-09-03T14:05:48.857Z,25.40
2022-09-03T14:08:26.722Z,25.20
2022-09-03T14:11:04.761Z,25.20
2022-09-03T14:13:47.705Z,25.30
2022-09-03T14:16:30.447Z,25.40
2022-09-03T14:19:02.565Z,25.40
2022-09-03T14:21:36.150Z,25.50
2022-09-03T14:24:13.341Z,25.50
2022-09-03T14:26:52.602Z,25.60
2022-09-03T14:29:24.495Z,25.70
2022-09-03T14:32:16.468Z,25.80
2022-09-03T14:35:01.266Z,25.80
2022-09-03T14:37:47.749Z,25.90
2022-09-03T14:40:21.076Z,25.90
2022-09-03T14:43:12.611Z,26.00
2022-09-03T14:46:05.706Z,26.10
2022-09-03T14:49:09.618Z,26.70
2022-09-03T14:51:52.734Z,26.20
2022-09-03T14:54:45.301Z,25.90
2022-09-03T14:57:31.430Z,26.40
2022-09-03T15:00:08.478Z,26.00
2022-09-03T15:03:08.461Z,26.20
2022-09-03T15:05:49.448Z,26.00
2022-09-03T15:08:30.115Z,26.20
2022-09-03T15:11:00.760Z,26.30
2022-09-03T15:13:34.283Z,26.00
2022-09-03T15:16:18.466Z,25.50
2022-09-03T15:19:01.815Z,25.40
2022-09-03T15:21:44.101Z,25.10
2022-09-03T15:24:25.068Z,24.90
2022-09-03T15:27:07.694Z,24.90
2022-09-03T15:29:51.491Z,24.70
2022-09-03T15:32:33.276Z,24.50
2022-09-03T15:35:07.502Z,24.40
2022-09-03T15:37:41.546Z,23.70
2022-09-03T15:40:24.722Z,24.00
2022-09-03T15:42:57.967Z,24.70
2022-09-03T15:45:36.892Z,24.60
2022-09-03T15:48:19.193Z,24.10
2022-09-03T15:50:58.818Z,24.20
2022-09-03T15:53:34.366Z,24.60
2022-09-03T15:56:13.570Z,24.80
2022-09-03T15:58:49.413Z,24.60
2022-09-03T16:01:31.053Z,24.10
2022-09-03T16:04:09.831Z,24.00
2022-09-03T16:06:49.500Z,24.30
2022-09-03T16:09:31.125Z,24.50
2022-09-03T16:12:10.137Z,24.50
2022-09-03T16:14:42.099Z,24.80
2022-09-03T16:17:22.566Z,24.80
2022-09-03T16:19:58.241Z,24.90
2022-09-03T16:22:29.397Z,25.20
2022-09-03T16:25:02.341Z,25.10
2022-09-03T16:27:36.966Z,25.30
2022-09-03T16:30:12.418Z,25.40
2022-09-03T16:33:01.509Z,24.90
2022-09-03T16:35:41.092Z,25.30
2022-09-03T16:38:23.483Z,25.50
2022-09-03T16:40:56.205Z,25.80
2022-09-03T16:43:41.122Z,26.10
2022-09-03T16:46:21.578Z,26.20
2022-09-03T16:48:59.764Z,26.20
2022-09-03T16:51:34.863Z,26.20
2022-09-03T16:54:19.956Z,26.50
2022-09-03T16:57:01.381Z,26.60
2022-09-03T16:59:48.746Z,26.70
2022-09-03T17:02:46.157Z,27.00
2022-09-03T17:05:33.786Z,27.10
2022-09-03T17:08:16.852Z,27.20
2022-09-03T17:10:50.729Z,27.10
2022-09-03T17:13:52.273Z,27.30
2022-09-03T17:16:29.989Z,29.00
2022-09-03T17:19:08.333Z,55.00
2022-09-03T17:21:49.650Z,54.10
2022-09-03T17:24:45.176Z,59.70
2022-09-03T17:27:35.937Z,28.80
2022-09-03T17:30:08.938Z,54.00
2022-09-03T17:32:57.595Z,59.90
2022-09-03T17:35:38.386Z,56.10
2022-09-03T17:38:25.836Z,59.50
2022-09-03T17:41:13.258Z,54.60
2022-09-03T17:43:49.011Z,29.90
2022-09-03T17:46:29.907Z,53.10
2022-09-03T17:49:01.149Z,52.40
2022-09-03T17:51:36.186Z,52.40
2022-09-03T17:54:13.476Z,57.60
2022-09-03T17:56:50.784Z,53.70
2022-09-03T17:59:26.002Z,29.70
2022-09-03T18:02:04.637Z,32.10
2022-09-03T18:04:44.800Z,52.40
2022-09-03T18:07:21.160Z,29.80
2022-09-03T18:10:00.380Z,53.00
2022-09-03T18:12:35.017Z,50.40
2022-09-03T18:15:12.371Z,50.70
2022-09-03T18:17:46.030Z,44.60
2022-09-03T18:20:33.540Z,45.20
2022-09-03T18:23:24.422Z,29.60
2022-09-03T18:26:16.219Z,42.10
2022-09-03T18:29:05.569Z,42.50
2022-09-03T18:31:50.592Z,30.40
2022-09-03T18:34:40.487Z,43.30
2022-09-03T18:37:27.062Z,42.60
2022-09-03T18:43:16.127Z,42.10
2022-09-03T18:47:00.038Z,42.60
2022-09-03T18:49:21.496Z,42.50
2022-09-03T18:52:17.206Z,42.90
2022-09-03T18:55:15.403Z,43.40
2022-09-03T18:58:15.099Z,42.10
2022-09-03T19:01:09.976Z,42.60
2022-09-03T19:04:05.559Z,42.00
2022-09-03T19:06:58.297Z,41.20
2022-09-03T19:09:55.862Z,41.20
2022-09-03T19:12:58.979Z,41.90
2022-09-03T19:15:53.038Z,42.10
2022-09-03T19:18:53.430Z,41.10
2022-09-03T19:21:47.288Z,40.40
2022-09-03T19:24:33.178Z,41.00
2022-09-03T19:27:53.103Z,41.60
2022-09-03T19:30:39.898Z,39.80
2022-09-03T19:33:34.509Z,42.30
2022-09-03T19:36:32.742Z,41.40
2022-09-03T19:39:33.390Z,42.60
2022-09-03T19:42:30.178Z,43.20
2022-09-03T19:45:25.911Z,35.10
2022-09-03T19:48:25.515Z,42.70
2022-09-03T19:51:23.374Z,41.80
2022-09-03T19:54:10.465Z,40.90
2022-09-03T19:56:56.442Z,41.50
2022-09-03T19:59:45.001Z,32.00
2022-09-03T20:02:30.790Z,39.20
2022-09-03T20:05:18.410Z,43.00
2022-09-03T20:08:07.836Z,43.00
2022-09-03T20:10:37.065Z,32.50
2022-09-03T20:13:09.709Z,39.10
2022-09-03T20:15:46.566Z,40.00
2022-09-03T20:18:22.888Z,40.90
2022-09-03T20:20:59.417Z,39.70
2022-09-03T20:23:37.162Z,39.80
2022-09-03T20:26:22.657Z,39.70
2022-09-03T20:29:07.874Z,32.50
2022-09-03T20:31:47.621Z,42.40
2022-09-03T20:34:29.845Z,44.40
2022-09-03T20:37:09.775Z,46.10
2022-09-03T20:39:50.440Z,45.60
2022-09-03T20:42:54.366Z,44.30
2022-09-03T20:45:26.334Z,43.60
2022-09-03T20:48:11.013Z,43.40
2022-09-03T20:50:48.602Z,42.30
2022-09-03T20:53:42.226Z,42.40
2022-09-03T20:56:17.513Z,42.10
2022-09-03T20:58:53.502Z,41.50
2022-09-03T21:01:29.337Z,41.60
2022-09-03T21:04:05.458Z,42.30
2022-09-03T21:06:45.651Z,33.20
2022-09-03T21:09:25.760Z,33.20
2022-09-03T21:12:07.541Z,42.60
2022-09-03T21:14:41.449Z,43.60
2022-09-03T21:17:25.490Z,33.20
2022-09-03T21:20:07.430Z,45.00
2022-09-03T21:22:45.707Z,42.90
2022-09-03T21:25:17.565Z,33.90
2022-09-03T21:27:50.822Z,46.00
2022-09-03T21:30:21.366Z,44.90
2022-09-03T21:32:53.778Z,34.10
2022-09-03T21:35:26.347Z,44.70
2022-09-03T21:37:59.278Z,44.70
2022-09-03T21:40:31.419Z,34.10
2022-09-03T21:43:10.918Z,44.10
2022-09-03T21:45:46.184Z,44.90
2022-09-03T21:48:18.405Z,44.70
2022-09-03T21:50:52.236Z,45.20
2022-09-03T21:53:27.241Z,44.60
2022-09-03T21:56:22.765Z,44.80
2022-09-03T21:59:08.925Z,45.60
2022-09-03T22:01:51.714Z,45.10
2022-09-03T22:04:19.923Z,41.70
2022-09-03T22:06:56.473Z,44.60
2022-09-03T22:09:30.505Z,44.40
2022-09-03T22:12:07.391Z,44.40
2022-09-03T22:14:43.184Z,34.20
2022-09-03T22:17:16.878Z,43.70
2022-09-03T22:19:46.045Z,44.50
2022-09-03T22:22:22.753Z,44.70
2022-09-03T22:24:58.831Z,44.60
2022-09-03T22:27:37.162Z,44.20
2022-09-03T22:30:11.301Z,44.20
2022-09-03T22:32:51.144Z,35.80
2022-09-03T22:35:41.982Z,44.10
2022-09-03T22:38:33.460Z,44.80
2022-09-03T22:41:12.706Z,43.90
2022-09-03T22:43:43.571Z,44.30
2022-09-03T22:46:15.564Z,46.50
2022-09-03T22:49:08.944Z,39.60
2022-09-03T22:51:51.336Z,45.60
2022-09-03T22:54:36.905Z,41.90
2022-09-03T22:57:07.606Z,45.00
2022-09-03T22:59:40.093Z,43.60
2022-09-03T23:02:15.266Z,44.20
2022-09-03T23:04:49.609Z,43.50
2022-09-03T23:07:25.329Z,44.30
2022-09-03T23:09:58.755Z,43.30
2022-09-03T23:12:34.637Z,43.90
2022-09-03T23:15:06.876Z,42.60
2022-09-03T23:17:43.938Z,43.80
2022-09-03T23:20:17.716Z,43.80
2022-09-03T23:22:54.518Z,43.50
2022-09-03T23:25:25.585Z,43.10
2022-09-03T23:27:58.588Z,43.30
2022-09-03T23:30:26.961Z,44.30
2022-09-03T23:32:59.151Z,44.70
2022-09-03T23:35:30.041Z,34.50
2022-09-03T23:38:12.512Z,44.30
2022-09-03T23:40:46.764Z,43.50
2022-09-03T23:43:40.776Z,43.40
2022-09-03T23:46:17.052Z,43.50
2022-09-03T23:49:04.459Z,43.20
2022-09-03T23:51:44.895Z,34.50
2022-09-03T23:54:21.863Z,43.00
2022-09-03T23:57:05.608Z,43.70
2022-09-03T23:59:50.232Z,37.60
